sensor_id;sensor_type;location;lat;lon;timestamp;temperature;humidity
10123;DHT22;5101;49.038;8.710;2022-07-05T00:00:03;18.70;98.30
10123;DHT22;5101;49.038;8.710;2022-07-05T00:02:29;18.70;98.40
10123;DHT22;5101;49.038;8.710;2022-07-05T00:04:54;18.70;98.50
10123;DHT22;5101;49.038;8.710;2022-07-05T00:07:20;18.60;98.60
10123;DHT22;5101;49.038;8.710;2022-07-05T00:09:55;18.60;98.60
10123;DHT22;5101;49.038;8.710;2022-07-05T00:12:25;18.60;98.50
10123;DHT22;5101;49.038;8.710;2022-07-05T00:14:51;18.50;98.20
10123;DHT22;5101;49.038;8.710;2022-07-05T00:17:17;18.50;97.90
10123;DHT22;5101;49.038;8.710;2022-07-05T00:19:43;18.50;97.70
10123;DHT22;5101;49.038;8.710;2022-07-05T00:22:09;18.40;97.60
10123;DHT22;5101;49.038;8.710;2022-07-05T00:24:34;18.40;97.50
10123;DHT22;5101;49.038;8.710;2022-07-05T00:27:00;18.30;97.60
10123;DHT22;5101;49.038;8.710;2022-07-05T00:29:26;18.20;97.70
10123;DHT22;5101;49.038;8.710;2022-07-05T00:31:52;18.20;97.50
10123;DHT22;5101;49.038;8.710;2022-07-05T00:34:17;18.20;97.50
10123;DHT22;5101;49.038;8.710;2022-07-05T00:36:43;18.10;97.50
10123;DHT22;5101;49.038;8.710;2022-07-05T00:39:09;18.10;97.60
10123;DHT22;5101;49.038;8.710;2022-07-05T00:41:35;18.00;97.60
10123;DHT22;5101;49.038;8.710;2022-07-05T00:44:04;18.00;97.80
10123;DHT22;5101;49.038;8.710;2022-07-05T00:46:30;17.90;97.80
10123;DHT22;5101;49.038;8.710;2022-07-05T00:48:57;17.90;98.00
10123;DHT22;5101;49.038;8.710;2022-07-05T00:51:23;17.80;98.40
10123;DHT22;5101;49.038;8.710;2022-07-05T00:53:49;17.80;98.30
10123;DHT22;5101;49.038;8.710;2022-07-05T00:56:15;17.80;98.40
10123;DHT22;5101;49.038;8.710;2022-07-05T00:58:41;17.80;98.60
10123;DHT22;5101;49.038;8.710;2022-07-05T01:01:08;17.70;98.80
10123;DHT22;5101;49.038;8.710;2022-07-05T01:03:34;17.70;99.10
10123;DHT22;5101;49.038;8.710;2022-07-05T01:06:06;17.60;99.10
10123;DHT22;5101;49.038;8.710;2022-07-05T01:08:34;17.60;99.60
10123;DHT22;5101;49.038;8.710;2022-07-05T01:11:00;17.60;99.60
10123;DHT22;5101;49.038;8.710;2022-07-05T01:13:26;17.60;99.80
10123;DHT22;5101;49.038;8.710;2022-07-05T01:15:52;17.50;99.90
10123;DHT22;5101;49.038;8.710;2022-07-05T01:18:20;17.50;99.90
10123;DHT22;5101;49.038;8.710;2022-07-05T01:20:48;17.40;99.90
10123;DHT22;5101;49.038;8.710;2022-07-05T01:23:14;17.40;99.90
10123;DHT22;5101;49.038;8.710;2022-07-05T01:25:40;17.40;99.90
10123;DHT22;5101;49.038;8.710;2022-07-05T01:28:06;17.40;99.90
10123;DHT22;5101;49.038;8.710;2022-07-05T01:30:34;17.30;99.90
10123;DHT22;5101;49.038;8.710;2022-07-05T01:32:59;17.30;99.90
10123;DHT22;5101;49.038;8.710;2022-07-05T01:35:25;17.30;99.90
10123;DHT22;5101;49.038;8.710;2022-07-05T01:37:51;17.30;99.90
10123;DHT22;5101;49.038;8.710;2022-07-05T01:40:18;17.20;99.90
10123;DHT22;5101;49.038;8.710;2022-07-05T01:42:44;17.20;99.90
10123;DHT22;5101;49.038;8.710;2022-07-05T01:45:10;17.20;99.90
10123;DHT22;5101;49.038;8.710;2022-07-05T01:47:41;17.10;99.90
10123;DHT22;5101;49.038;8.710;2022-07-05T01:50:14;17.10;99.90
10123;DHT22;5101;49.038;8.710;2022-07-05T01:52:43;17.10;99.90
10123;DHT22;5101;49.038;8.710;2022-07-05T01:55:11;17.10;99.90
10123;DHT22;5101;49.038;8.710;2022-07-05T01:57:36;17.00;99.90
10123;DHT22;5101;49.038;8.710;2022-07-05T02:00:02;17.00;99.90
10123;DHT22;5101;49.038;8.710;2022-07-05T02:02:28;17.00;99.90
10123;DHT22;5101;49.038;8.710;2022-07-05T02:04:53;16.90;99.90
10123;DHT22;5101;49.038;8.710;2022-07-05T02:07:19;16.90;99.90
10123;DHT22;5101;49.038;8.710;2022-07-05T02:09:44;16.80;99.90
10123;DHT22;5101;49.038;8.710;2022-07-05T02:12:10;16.80;99.90
10123;DHT22;5101;49.038;8.710;2022-07-05T02:14:36;16.80;99.90
10123;DHT22;5101;49.038;8.710;2022-07-05T02:17:02;16.70;99.90
10123;DHT22;5101;49.038;8.710;2022-07-05T02:19:28;16.70;99.90
10123;DHT22;5101;49.038;8.710;2022-07-05T02:21:53;16.70;99.90
10123;DHT22;5101;49.038;8.710;2022-07-05T02:24:20;16.70;99.90
10123;DHT22;5101;49.038;8.710;2022-07-05T02:26:47;16.60;99.90
10123;DHT22;5101;49.038;8.710;2022-07-05T02:29:12;16.60;99.90
10123;DHT22;5101;49.038;8.710;2022-07-05T02:31:38;16.60;99.90
10123;DHT22;5101;49.038;8.710;2022-07-05T02:34:03;16.60;99.90
10123;DHT22;5101;49.038;8.710;2022-07-05T02:36:29;16.60;99.90
10123;DHT22;5101;49.038;8.710;2022-07-05T02:38:54;16.60;99.90
10123;DHT22;5101;49.038;8.710;2022-07-05T02:41:20;16.50;99.90
10123;DHT22;5101;49.038;8.710;2022-07-05T02:43:45;16.50;99.90
10123;DHT22;5101;49.038;8.710;2022-07-05T02:46:11;16.50;99.90
10123;DHT22;5101;49.038;8.710;2022-07-05T02:48:37;16.50;99.90
10123;DHT22;5101;49.038;8.710;2022-07-05T02:51:04;16.50;99.90
10123;DHT22;5101;49.038;8.710;2022-07-05T02:53:30;16.40;99.90
10123;DHT22;5101;49.038;8.710;2022-07-05T02:55:56;16.40;99.90
10123;DHT22;5101;49.038;8.710;2022-07-05T02:58:21;16.40;99.90
10123;DHT22;5101;49.038;8.710;2022-07-05T03:00:48;16.40;99.90
10123;DHT22;5101;49.038;8.710;2022-07-05T03:03:14;16.40;99.90
10123;DHT22;5101;49.038;8.710;2022-07-05T03:05:40;16.30;99.90
10123;DHT22;5101;49.038;8.710;2022-07-05T03:08:06;16.30;99.90
10123;DHT22;5101;49.038;8.710;2022-07-05T03:10:32;16.30;99.90
10123;DHT22;5101;49.038;8.710;2022-07-05T03:12:58;16.30;99.90
10123;DHT22;5101;49.038;8.710;2022-07-05T03:15:23;16.20;99.90
10123;DHT22;5101;49.038;8.710;2022-07-05T03:17:49;16.20;99.90
10123;DHT22;5101;49.038;8.710;2022-07-05T03:20:14;16.20;99.90
10123;DHT22;5101;49.038;8.710;2022-07-05T03:22:40;16.20;99.90
10123;DHT22;5101;49.038;8.710;2022-07-05T03:25:05;16.10;99.90
10123;DHT22;5101;49.038;8.710;2022-07-05T03:27:31;16.10;99.90
10123;DHT22;5101;49.038;8.710;2022-07-05T03:29:57;16.10;99.90
10123;DHT22;5101;49.038;8.710;2022-07-05T03:32:22;16.10;99.90
10123;DHT22;5101;49.038;8.710;2022-07-05T03:34:48;16.10;99.90
10123;DHT22;5101;49.038;8.710;2022-07-05T03:37:13;16.10;99.90
10123;DHT22;5101;49.038;8.710;2022-07-05T03:39:39;16.00;99.90
10123;DHT22;5101;49.038;8.710;2022-07-05T03:42:05;16.00;99.90
10123;DHT22;5101;49.038;8.710;2022-07-05T03:44:31;16.00;99.90
10123;DHT22;5101;49.038;8.710;2022-07-05T03:46:58;16.00;99.90
10123;DHT22;5101;49.038;8.710;2022-07-05T03:49:23;16.00;99.90
10123;DHT22;5101;49.038;8.710;2022-07-05T03:51:49;16.00;99.90
10123;DHT22;5101;49.038;8.710;2022-07-05T03:54:14;16.00;99.90
10123;DHT22;5101;49.038;8.710;2022-07-05T03:56:40;15.90;99.90
10123;DHT22;5101;49.038;8.710;2022-07-05T03:59:06;15.90;99.90
10123;DHT22;5101;49.038;8.710;2022-07-05T04:01:31;16.00;99.90
10123;DHT22;5101;49.038;8.710;2022-07-05T04:03:57;15.90;99.90
10123;DHT22;5101;49.038;8.710;2022-07-05T04:06:22;15.90;99.90
10123;DHT22;5101;49.038;8.710;2022-07-05T04:08:48;16.00;99.90
10123;DHT22;5101;49.038;8.710;2022-07-05T04:11:14;16.00;99.90
10123;DHT22;5101;49.038;8.710;2022-07-05T04:13:41;16.00;99.90
10123;DHT22;5101;49.038;8.710;2022-07-05T04:16:07;16.00;99.90
10123;DHT22;5101;49.038;8.710;2022-07-05T04:18:32;16.00;99.90
10123;DHT22;5101;49.038;8.710;2022-07-05T04:20:58;16.00;99.90
10123;DHT22;5101;49.038;8.710;2022-07-05T04:23:23;16.00;99.90
10123;DHT22;5101;49.038;8.710;2022-07-05T04:25:49;16.00;99.90
10123;DHT22;5101;49.038;8.710;2022-07-05T04:28:14;16.00;99.90
10123;DHT22;5101;49.038;8.710;2022-07-05T04:30:40;16.00;99.90
10123;DHT22;5101;49.038;8.710;2022-07-05T04:33:05;16.00;99.90
10123;DHT22;5101;49.038;8.710;2022-07-05T04:35:31;16.00;99.90
10123;DHT22;5101;49.038;8.710;2022-07-05T04:37:56;15.90;99.90
10123;DHT22;5101;49.038;8.710;2022-07-05T04:40:22;15.90;99.90
10123;DHT22;5101;49.038;8.710;2022-07-05T04:42:47;15.90;99.90
10123;DHT22;5101;49.038;8.710;2022-07-05T04:45:13;15.90;99.90
10123;DHT22;5101;49.038;8.710;2022-07-05T04:47:38;15.90;99.90
10123;DHT22;5101;49.038;8.710;2022-07-05T04:50:05;16.00;99.90
10123;DHT22;5101;49.038;8.710;2022-07-05T04:52:31;16.00;99.90
10123;DHT22;5101;49.038;8.710;2022-07-05T04:54:57;16.00;99.90
10123;DHT22;5101;49.038;8.710;2022-07-05T04:57:22;16.00;99.90
10123;DHT22;5101;49.038;8.710;2022-07-05T04:59:48;16.10;99.90
10123;DHT22;5101;49.038;8.710;2022-07-05T05:02:13;16.10;99.90
10123;DHT22;5101;49.038;8.710;2022-07-05T05:04:39;16.20;99.90
10123;DHT22;5101;49.038;8.710;2022-07-05T05:07:05;16.20;99.90
10123;DHT22;5101;49.038;8.710;2022-07-05T05:09:30;16.30;99.90
10123;DHT22;5101;49.038;8.710;2022-07-05T05:11:56;16.30;99.90
10123;DHT22;5101;49.038;8.710;2022-07-05T05:14:21;16.40;99.90
10123;DHT22;5101;49.038;8.710;2022-07-05T05:16:47;16.40;99.90
10123;DHT22;5101;49.038;8.710;2022-07-05T05:19:12;16.50;99.90
10123;DHT22;5101;49.038;8.710;2022-07-05T05:21:38;16.50;99.90
10123;DHT22;5101;49.038;8.710;2022-07-05T05:24:04;16.60;99.90
10123;DHT22;5101;49.038;8.710;2022-07-05T05:26:29;16.60;99.90
10123;DHT22;5101;49.038;8.710;2022-07-05T05:28:55;16.60;99.90
10123;DHT22;5101;49.038;8.710;2022-07-05T05:31:21;16.70;99.90
10123;DHT22;5101;49.038;8.710;2022-07-05T05:33:46;16.80;99.90
10123;DHT22;5101;49.038;8.710;2022-07-05T05:36:12;16.90;99.90
10123;DHT22;5101;49.038;8.710;2022-07-05T05:38:37;17.00;99.90
10123;DHT22;5101;49.038;8.710;2022-07-05T05:41:03;17.10;99.90
10123;DHT22;5101;49.038;8.710;2022-07-05T05:43:29;17.20;99.90
10123;DHT22;5101;49.038;8.710;2022-07-05T05:45:54;17.40;99.90
10123;DHT22;5101;49.038;8.710;2022-07-05T05:48:20;17.50;99.90
10123;DHT22;5101;49.038;8.710;2022-07-05T05:50:46;17.60;99.90
10123;DHT22;5101;49.038;8.710;2022-07-05T05:53:12;17.80;99.90
10123;DHT22;5101;49.038;8.710;2022-07-05T05:55:37;17.90;99.90
10123;DHT22;5101;49.038;8.710;2022-07-05T05:58:17;18.00;99.90
10123;DHT22;5101;49.038;8.710;2022-07-05T06:00:44;18.20;99.90
10123;DHT22;5101;49.038;8.710;2022-07-05T06:03:16;18.40;99.90
10123;DHT22;5101;49.038;8.710;2022-07-05T06:05:42;18.50;99.90
10123;DHT22;5101;49.038;8.710;2022-07-05T06:08:07;18.70;99.90
10123;DHT22;5101;49.038;8.710;2022-07-05T06:10:34;19.00;99.90
10123;DHT22;5101;49.038;8.710;2022-07-05T06:13:03;19.20;99.90
10123;DHT22;5101;49.038;8.710;2022-07-05T06:15:29;19.50;99.40
10123;DHT22;5101;49.038;8.710;2022-07-05T06:17:54;19.80;98.70
10123;DHT22;5101;49.038;8.710;2022-07-05T06:20:29;20.10;97.50
10123;DHT22;5101;49.038;8.710;2022-07-05T06:22:56;20.50;95.70
10123;DHT22;5101;49.038;8.710;2022-07-05T06:25:22;20.70;94.30
10123;DHT22;5101;49.038;8.710;2022-07-05T06:27:50;21.10;93.30
10123;DHT22;5101;49.038;8.710;2022-07-05T06:30:19;21.50;92.70
10123;DHT22;5101;49.038;8.710;2022-07-05T06:32:46;21.80;91.30
10123;DHT22;5101;49.038;8.710;2022-07-05T06:35:12;22.20;90.30
10123;DHT22;5101;49.038;8.710;2022-07-05T06:37:49;22.60;89.60
10123;DHT22;5101;49.038;8.710;2022-07-05T06:40:21;23.10;85.40
10123;DHT22;5101;49.038;8.710;2022-07-05T06:42:47;23.50;83.90
10123;DHT22;5101;49.038;8.710;2022-07-05T06:45:13;23.80;80.70
10123;DHT22;5101;49.038;8.710;2022-07-05T06:47:38;24.10;77.80
10123;DHT22;5101;49.038;8.710;2022-07-05T06:50:05;24.30;74.90
10123;DHT22;5101;49.038;8.710;2022-07-05T06:52:32;24.70;73.20
10123;DHT22;5101;49.038;8.710;2022-07-05T06:55:01;25.00;72.00
10123;DHT22;5101;49.038;8.710;2022-07-05T06:57:27;25.40;69.60
10123;DHT22;5101;49.038;8.710;2022-07-05T06:59:52;25.80;68.40
10123;DHT22;5101;49.038;8.710;2022-07-05T07:02:18;26.00;67.00
10123;DHT22;5101;49.038;8.710;2022-07-05T07:04:47;26.30;66.10
10123;DHT22;5101;49.038;8.710;2022-07-05T07:07:13;26.40;63.50
10123;DHT22;5101;49.038;8.710;2022-07-05T07:09:58;26.50;61.80
10123;DHT22;5101;49.038;8.710;2022-07-05T07:12:24;26.60;61.00
10123;DHT22;5101;49.038;8.710;2022-07-05T07:14:50;26.70;59.10
10123;DHT22;5101;49.038;8.710;2022-07-05T07:17:15;26.50;57.60
10123;DHT22;5101;49.038;8.710;2022-07-05T07:19:41;26.70;57.80
10123;DHT22;5101;49.038;8.710;2022-07-05T07:22:06;26.80;56.70
10123;DHT22;5101;49.038;8.710;2022-07-05T07:24:32;26.80;54.80
10123;DHT22;5101;49.038;8.710;2022-07-05T07:26:57;26.90;54.80
10123;DHT22;5101;49.038;8.710;2022-07-05T07:29:30;27.10;54.60
10123;DHT22;5101;49.038;8.710;2022-07-05T07:31:57;27.30;54.60
10123;DHT22;5101;49.038;8.710;2022-07-05T07:34:23;27.40;53.00
10123;DHT22;5101;49.038;8.710;2022-07-05T07:36:49;27.60;52.90
10123;DHT22;5101;49.038;8.710;2022-07-05T07:39:15;27.70;53.10
10123;DHT22;5101;49.038;8.710;2022-07-05T07:41:41;27.90;53.00
10123;DHT22;5101;49.038;8.710;2022-07-05T07:44:06;28.00;52.10
10123;DHT22;5101;49.038;8.710;2022-07-05T07:46:32;28.20;50.50
10123;DHT22;5101;49.038;8.710;2022-07-05T07:48:58;28.20;50.80
10123;DHT22;5101;49.038;8.710;2022-07-05T07:51:23;28.40;49.00
10123;DHT22;5101;49.038;8.710;2022-07-05T07:53:49;28.50;48.40
10123;DHT22;5101;49.038;8.710;2022-07-05T07:56:15;28.60;47.90
10123;DHT22;5101;49.038;8.710;2022-07-05T08:01:09;28.70;47.10
10123;DHT22;5101;49.038;8.710;2022-07-05T08:03:36;28.70;46.70
10123;DHT22;5101;49.038;8.710;2022-07-05T08:06:02;28.90;46.50
10123;DHT22;5101;49.038;8.710;2022-07-05T08:08:27;29.00;45.30
10123;DHT22;5101;49.038;8.710;2022-07-05T08:10:53;28.80;44.80
10123;DHT22;5101;49.038;8.710;2022-07-05T08:13:18;28.80;44.80
10123;DHT22;5101;49.038;8.710;2022-07-05T08:15:44;28.90;44.60
10123;DHT22;5101;49.038;8.710;2022-07-05T08:18:09;28.90;43.60
10123;DHT22;5101;49.038;8.710;2022-07-05T08:20:54;28.80;43.20
10123;DHT22;5101;49.038;8.710;2022-07-05T08:23:38;28.50;42.80
10123;DHT22;5101;49.038;8.710;2022-07-05T08:26:03;28.60;43.30
10123;DHT22;5101;49.038;8.710;2022-07-05T08:28:29;28.60;42.90
10123;DHT22;5101;49.038;8.710;2022-07-05T08:30:54;28.80;43.10
10123;DHT22;5101;49.038;8.710;2022-07-05T08:33:20;28.70;43.20
10123;DHT22;5101;49.038;8.710;2022-07-05T08:35:45;28.40;43.10
10123;DHT22;5101;49.038;8.710;2022-07-05T08:38:11;28.30;43.30
10123;DHT22;5101;49.038;8.710;2022-07-05T08:40:40;28.50;43.30
10123;DHT22;5101;49.038;8.710;2022-07-05T08:43:07;28.60;43.10
10123;DHT22;5101;49.038;8.710;2022-07-05T08:45:34;28.70;43.10
10123;DHT22;5101;49.038;8.710;2022-07-05T08:48:00;28.80;43.20
10123;DHT22;5101;49.038;8.710;2022-07-05T08:50:27;28.90;43.20
10123;DHT22;5101;49.038;8.710;2022-07-05T08:52:53;29.00;42.40
10123;DHT22;5101;49.038;8.710;2022-07-05T08:55:19;28.90;41.90
10123;DHT22;5101;49.038;8.710;2022-07-05T08:57:45;29.00;42.50
10123;DHT22;5101;49.038;8.710;2022-07-05T09:00:11;29.10;42.50
10123;DHT22;5101;49.038;8.710;2022-07-05T09:02:36;29.20;41.90
10123;DHT22;5101;49.038;8.710;2022-07-05T09:05:04;29.00;41.50
10123;DHT22;5101;49.038;8.710;2022-07-05T09:07:32;29.10;41.20
10123;DHT22;5101;49.038;8.710;2022-07-05T09:10:02;29.20;40.60
10123;DHT22;5101;49.038;8.710;2022-07-05T09:12:28;29.20;41.00
10123;DHT22;5101;49.038;8.710;2022-07-05T09:14:54;29.20;41.10
10123;DHT22;5101;49.038;8.710;2022-07-05T09:17:20;29.30;41.40
10123;DHT22;5101;49.038;8.710;2022-07-05T09:20:06;29.40;41.40
10123;DHT22;5101;49.038;8.710;2022-07-05T09:25:20;29.50;39.30
10123;DHT22;5101;49.038;8.710;2022-07-05T09:27:58;29.50;40.00
10123;DHT22;5101;49.038;8.710;2022-07-05T09:30:25;29.60;39.70
10123;DHT22;5101;49.038;8.710;2022-07-05T09:35:40;29.60;39.40
10123;DHT22;5101;49.038;8.710;2022-07-05T09:38:19;29.60;39.00
10123;DHT22;5101;49.038;8.710;2022-07-05T09:40:46;29.50;39.30
10123;DHT22;5101;49.038;8.710;2022-07-05T09:43:14;29.50;39.80
10123;DHT22;5101;49.038;8.710;2022-07-05T09:45:49;29.60;40.10
10123;DHT22;5101;49.038;8.710;2022-07-05T09:48:15;29.70;40.20
10123;DHT22;5101;49.038;8.710;2022-07-05T09:50:40;29.60;40.10
10123;DHT22;5101;49.038;8.710;2022-07-05T09:53:06;29.60;40.30
10123;DHT22;5101;49.038;8.710;2022-07-05T09:55:32;29.50;40.20
10123;DHT22;5101;49.038;8.710;2022-07-05T09:57:58;29.40;39.50
10123;DHT22;5101;49.038;8.710;2022-07-05T10:00:23;29.40;39.20
10123;DHT22;5101;49.038;8.710;2022-07-05T10:02:54;29.40;38.70
10123;DHT22;5101;49.038;8.710;2022-07-05T10:05:25;29.50;37.70
10123;DHT22;5101;49.038;8.710;2022-07-05T10:07:56;29.40;37.20
10123;DHT22;5101;49.038;8.710;2022-07-05T10:10:23;29.50;37.50
10123;DHT22;5101;49.038;8.710;2022-07-05T10:12:50;29.70;38.20
10123;DHT22;5101;49.038;8.710;2022-07-05T10:15:19;29.80;37.80
10123;DHT22;5101;49.038;8.710;2022-07-05T10:20:23;30.00;37.10
10123;DHT22;5101;49.038;8.710;2022-07-05T10:22:49;29.90;36.40
10123;DHT22;5101;49.038;8.710;2022-07-05T10:25:16;29.50;35.90
10123;DHT22;5101;49.038;8.710;2022-07-05T10:27:42;29.40;35.80
10123;DHT22;5101;49.038;8.710;2022-07-05T10:30:09;29.50;36.50
10123;DHT22;5101;49.038;8.710;2022-07-05T10:32:35;29.50;35.90
10123;DHT22;5101;49.038;8.710;2022-07-05T10:35:02;29.50;36.10
10123;DHT22;5101;49.038;8.710;2022-07-05T10:37:31;29.60;36.20
10123;DHT22;5101;49.038;8.710;2022-07-05T10:40:02;29.50;35.50
10123;DHT22;5101;49.038;8.710;2022-07-05T10:42:33;29.30;35.40
10123;DHT22;5101;49.038;8.710;2022-07-05T10:45:00;29.20;35.00
10123;DHT22;5101;49.038;8.710;2022-07-05T10:47:26;29.20;34.70
10123;DHT22;5101;49.038;8.710;2022-07-05T10:50:06;29.30;35.00
10123;DHT22;5101;49.038;8.710;2022-07-05T10:52:31;29.40;35.00
10123;DHT22;5101;49.038;8.710;2022-07-05T10:55:20;29.50;35.30
10123;DHT22;5101;49.038;8.710;2022-07-05T10:58:21;29.50;34.90
10123;DHT22;5101;49.038;8.710;2022-07-05T11:00:48;29.70;34.80
10123;DHT22;5101;49.038;8.710;2022-07-05T11:06:03;29.90;33.70
10123;DHT22;5101;49.038;8.710;2022-07-05T11:08:30;29.80;33.70
10123;DHT22;5101;49.038;8.710;2022-07-05T11:11:13;29.80;33.60
10123;DHT22;5101;49.038;8.710;2022-07-05T11:13:42;29.60;33.60
10123;DHT22;5101;49.038;8.710;2022-07-05T11:16:23;29.60;35.40
10123;DHT22;5101;49.038;8.710;2022-07-05T11:19:04;29.60;35.00
10123;DHT22;5101;49.038;8.710;2022-07-05T11:21:30;29.60;35.40
10123;DHT22;5101;49.038;8.710;2022-07-05T11:24:19;29.70;35.10
10123;DHT22;5101;49.038;8.710;2022-07-05T11:26:46;29.90;35.00
10123;DHT22;5101;49.038;8.710;2022-07-05T11:29:44;29.90;34.30
10123;DHT22;5101;49.038;8.710;2022-07-05T11:32:11;29.50;33.50
10123;DHT22;5101;49.038;8.710;2022-07-05T11:34:41;29.60;34.10
10123;DHT22;5101;49.038;8.710;2022-07-05T11:39:39;29.70;34.90
10123;DHT22;5101;49.038;8.710;2022-07-05T11:42:05;29.80;34.10
10123;DHT22;5101;49.038;8.710;2022-07-05T11:44:32;29.70;33.00
10123;DHT22;5101;49.038;8.710;2022-07-05T11:46:59;29.80;33.30
10123;DHT22;5101;49.038;8.710;2022-07-05T11:49:24;29.80;33.60
10123;DHT22;5101;49.038;8.710;2022-07-05T11:51:58;29.60;33.80
10123;DHT22;5101;49.038;8.710;2022-07-05T11:54:25;29.80;34.20
10123;DHT22;5101;49.038;8.710;2022-07-05T11:56:51;29.70;34.00
10123;DHT22;5101;49.038;8.710;2022-07-05T11:59:20;29.80;34.00
10123;DHT22;5101;49.038;8.710;2022-07-05T12:01:46;29.90;34.80
10123;DHT22;5101;49.038;8.710;2022-07-05T12:04:20;30.00;34.50
10123;DHT22;5101;49.038;8.710;2022-07-05T12:06:45;30.00;34.50
10123;DHT22;5101;49.038;8.710;2022-07-05T12:09:13;30.10;34.20
10123;DHT22;5101;49.038;8.710;2022-07-05T12:11:39;30.30;34.30
10123;DHT22;5101;49.038;8.710;2022-07-05T12:14:23;30.10;33.30
10123;DHT22;5101;49.038;8.710;2022-07-05T12:17:09;30.00;32.80
10123;DHT22;5101;49.038;8.710;2022-07-05T12:19:35;30.10;32.60
10123;DHT22;5101;49.038;8.710;2022-07-05T12:22:01;30.20;32.00
10123;DHT22;5101;49.038;8.710;2022-07-05T12:24:26;30.20;31.50
10123;DHT22;5101;49.038;8.710;2022-07-05T12:26:52;30.10;31.70
10123;DHT22;5101;49.038;8.710;2022-07-05T12:29:18;30.10;32.10
10123;DHT22;5101;49.038;8.710;2022-07-05T12:32:01;30.10;31.90
10123;DHT22;5101;49.038;8.710;2022-07-05T12:34:27;30.20;33.50
10123;DHT22;5101;49.038;8.710;2022-07-05T12:36:52;30.30;33.40
10123;DHT22;5101;49.038;8.710;2022-07-05T12:39:18;30.20;33.10
10123;DHT22;5101;49.038;8.710;2022-07-05T12:41:43;30.30;33.40
10123;DHT22;5101;49.038;8.710;2022-07-05T12:44:09;30.50;33.90
10123;DHT22;5101;49.038;8.710;2022-07-05T12:46:39;30.50;34.10
10123;DHT22;5101;49.038;8.710;2022-07-05T12:49:05;30.60;33.20
10123;DHT22;5101;49.038;8.710;2022-07-05T12:51:36;30.40;32.40
10123;DHT22;5101;49.038;8.710;2022-07-05T12:54:02;30.00;32.40
10123;DHT22;5101;49.038;8.710;2022-07-05T12:56:48;30.10;33.30
10123;DHT22;5101;49.038;8.710;2022-07-05T12:59:33;30.30;33.30
10123;DHT22;5101;49.038;8.710;2022-07-05T13:01:58;30.40;33.10
10123;DHT22;5101;49.038;8.710;2022-07-05T13:04:24;30.50;33.20
10123;DHT22;5101;49.038;8.710;2022-07-05T13:06:57;30.50;32.50
10123;DHT22;5101;49.038;8.710;2022-07-05T13:09:30;30.40;32.20
10123;DHT22;5101;49.038;8.710;2022-07-05T13:12:12;30.50;31.70
10123;DHT22;5101;49.038;8.710;2022-07-05T13:14:43;30.30;31.70
10123;DHT22;5101;49.038;8.710;2022-07-05T13:17:11;30.20;31.90
10123;DHT22;5101;49.038;8.710;2022-07-05T13:19:38;30.20;32.40
10123;DHT22;5101;49.038;8.710;2022-07-05T13:22:05;30.30;32.80
10123;DHT22;5101;49.038;8.710;2022-07-05T13:24:30;30.20;34.00
10123;DHT22;5101;49.038;8.710;2022-07-05T13:26:56;30.10;33.00
10123;DHT22;5101;49.038;8.710;2022-07-05T13:29:22;30.10;33.20
10123;DHT22;5101;49.038;8.710;2022-07-05T13:31:48;30.30;33.30
10123;DHT22;5101;49.038;8.710;2022-07-05T13:34:13;30.40;33.30
10123;DHT22;5101;49.038;8.710;2022-07-05T13:36:39;30.40;32.50
10123;DHT22;5101;49.038;8.710;2022-07-05T13:39:04;30.50;32.10
10123;DHT22;5101;49.038;8.710;2022-07-05T13:41:30;30.30;32.10
10123;DHT22;5101;49.038;8.710;2022-07-05T13:43:57;30.00;32.20
10123;DHT22;5101;49.038;8.710;2022-07-05T13:46:23;29.80;31.20
10123;DHT22;5101;49.038;8.710;2022-07-05T13:48:48;29.70;31.50
10123;DHT22;5101;49.038;8.710;2022-07-05T13:51:14;29.80;32.30
10123;DHT22;5101;49.038;8.710;2022-07-05T13:53:39;29.90;32.40
10123;DHT22;5101;49.038;8.710;2022-07-05T13:56:05;29.90;31.20
10123;DHT22;5101;49.038;8.710;2022-07-05T13:58:31;29.80;30.90
10123;DHT22;5101;49.038;8.710;2022-07-05T14:00:57;29.80;31.40
10123;DHT22;5101;49.038;8.710;2022-07-05T14:03:23;29.90;31.50
10123;DHT22;5101;49.038;8.710;2022-07-05T14:05:48;29.90;31.10
10123;DHT22;5101;49.038;8.710;2022-07-05T14:08:15;29.90;30.60
10123;DHT22;5101;49.038;8.710;2022-07-05T14:10:50;30.00;30.70
10123;DHT22;5101;49.038;8.710;2022-07-05T14:13:19;29.90;30.80
10123;DHT22;5101;49.038;8.710;2022-07-05T14:15:46;29.90;31.60
10123;DHT22;5101;49.038;8.710;2022-07-05T14:18:14;30.00;31.50
10123;DHT22;5101;49.038;8.710;2022-07-05T14:20:40;30.00;30.80
10123;DHT22;5101;49.038;8.710;2022-07-05T14:23:05;30.00;30.70
10123;DHT22;5101;49.038;8.710;2022-07-05T14:25:31;30.00;31.00
10123;DHT22;5101;49.038;8.710;2022-07-05T14:27:56;30.10;31.90
10123;DHT22;5101;49.038;8.710;2022-07-05T14:30:22;30.00;32.00
10123;DHT22;5101;49.038;8.710;2022-07-05T14:32:49;29.90;32.10
10123;DHT22;5101;49.038;8.710;2022-07-05T14:35:15;30.00;32.10
10123;DHT22;5101;49.038;8.710;2022-07-05T14:37:40;29.90;32.10
10123;DHT22;5101;49.038;8.710;2022-07-05T14:40:06;29.70;31.80
10123;DHT22;5101;49.038;8.710;2022-07-05T14:42:33;29.50;31.60
10123;DHT22;5101;49.038;8.710;2022-07-05T14:44:58;29.50;31.80
10123;DHT22;5101;49.038;8.710;2022-07-05T14:47:24;29.40;31.80
10123;DHT22;5101;49.038;8.710;2022-07-05T14:49:52;29.30;31.80
10123;DHT22;5101;49.038;8.710;2022-07-05T14:52:17;29.30;32.00
10123;DHT22;5101;49.038;8.710;2022-07-05T14:54:43;29.30;31.80
10123;DHT22;5101;49.038;8.710;2022-07-05T14:57:09;29.20;31.50
10123;DHT22;5101;49.038;8.710;2022-07-05T14:59:34;29.00;31.80
10123;DHT22;5101;49.038;8.710;2022-07-05T15:01:59;29.00;32.50
10123;DHT22;5101;49.038;8.710;2022-07-05T15:04:25;29.00;33.00
10123;DHT22;5101;49.038;8.710;2022-07-05T15:06:50;29.00;32.80
10123;DHT22;5101;49.038;8.710;2022-07-05T15:09:17;29.00;32.40
10123;DHT22;5101;49.038;8.710;2022-07-05T15:11:43;29.00;32.60
10123;DHT22;5101;49.038;8.710;2022-07-05T15:14:09;29.00;32.80
10123;DHT22;5101;49.038;8.710;2022-07-05T15:16:34;29.00;32.90
10123;DHT22;5101;49.038;8.710;2022-07-05T15:19:01;29.00;32.50
10123;DHT22;5101;49.038;8.710;2022-07-05T15:21:27;29.10;32.70
10123;DHT22;5101;49.038;8.710;2022-07-05T15:23:52;29.00;33.20
10123;DHT22;5101;49.038;8.710;2022-07-05T15:26:21;28.90;33.20
10123;DHT22;5101;49.038;8.710;2022-07-05T15:28:46;28.90;33.00
10123;DHT22;5101;49.038;8.710;2022-07-05T15:31:12;28.90;32.90
10123;DHT22;5101;49.038;8.710;2022-07-05T15:33:38;28.90;32.80
10123;DHT22;5101;49.038;8.710;2022-07-05T15:36:03;28.70;32.90
10123;DHT22;5101;49.038;8.710;2022-07-05T15:38:29;28.70;33.00
10123;DHT22;5101;49.038;8.710;2022-07-05T15:40:56;28.60;33.60
10123;DHT22;5101;49.038;8.710;2022-07-05T15:43:22;28.60;34.10
10123;DHT22;5101;49.038;8.710;2022-07-05T15:45:50;28.60;34.30
10123;DHT22;5101;49.038;8.710;2022-07-05T15:48:16;28.60;34.30
10123;DHT22;5101;49.038;8.710;2022-07-05T15:50:42;28.70;34.20
10123;DHT22;5101;49.038;8.710;2022-07-05T15:53:07;28.60;33.30
10123;DHT22;5101;49.038;8.710;2022-07-05T15:55:33;28.60;33.20
10123;DHT22;5101;49.038;8.710;2022-07-05T15:57:58;28.50;33.70
10123;DHT22;5101;49.038;8.710;2022-07-05T16:00:24;28.40;34.20